sensor_id;sensor_type;location;lat;lon;timestamp;P1;durP1;ratioP1;P2;durP2;ratioP2
44774;SDS011;31340;51.402;0.016;2023-08-20T00:01:57;19.10;;;3.50;;
44774;SDS011;31340;51.402;0.016;2023-08-20T00:06:57;14.90;;;3.60;;
44774;SDS011;31340;51.402;0.016;2023-08-20T00:09:25;19.08;;;4.13;;
44774;SDS011;31340;51.402;0.016;2023-08-20T00:11:54;25.98;;;4.20;;
44774;SDS011;31340;51.402;0.016;2023-08-20T00:14:24;17.17;;;3.35;;
44774;SDS011;31340;51.402;0.016;2023-08-20T00:17:20;16.45;;;3.03;;
44774;SDS011;31340;51.402;0.016;2023-08-20T00:19:48;15.07;;;3.92;;
44774;SDS011;31340;51.402;0.016;2023-08-20T00:22:16;13.15;;;3.95;;
44774;SDS011;31340;51.402;0.016;2023-08-20T00:24:45;18.52;;;3.78;;
44774;SDS011;31340;51.402;0.016;2023-08-20T00:27:12;15.82;;;3.60;;
44774;SDS011;31340;51.402;0.016;2023-08-20T00:29:40;18.20;;;3.00;;
44774;SDS011;31340;51.402;0.016;2023-08-20T00:32:07;17.05;;;3.35;;
44774;SDS011;31340;51.402;0.016;2023-08-20T00:34:35;17.88;;;3.00;;
44774;SDS011;31340;51.402;0.016;2023-08-20T00:37:03;12.75;;;3.03;;
44774;SDS011;31340;51.402;0.016;2023-08-20T00:39:31;16.88;;;3.95;;
44774;SDS011;31340;51.402;0.016;2023-08-20T00:41:59;14.15;;;2.95;;
44774;SDS011;31340;51.402;0.016;2023-08-20T00:44:26;20.90;;;3.83;;
44774;SDS011;31340;51.402;0.016;2023-08-20T00:46:54;11.93;;;3.17;;
44774;SDS011;31340;51.402;0.016;2023-08-20T00:49:23;18.67;;;3.38;;
44774;SDS011;31340;51.402;0.016;2023-08-20T00:51:51;14.10;;;2.83;;
44774;SDS011;31340;51.402;0.016;2023-08-20T00:54:19;13.45;;;2.70;;
44774;SDS011;31340;51.402;0.016;2023-08-20T00:56:47;21.45;;;3.72;;
44774;SDS011;31340;51.402;0.016;2023-08-20T00:59:17;17.20;;;3.00;;
44774;SDS011;31340;51.402;0.016;2023-08-20T01:01:44;20.65;;;3.42;;
44774;SDS011;31340;51.402;0.016;2023-08-20T01:04:13;15.13;;;2.80;;
44774;SDS011;31340;51.402;0.016;2023-08-20T01:09:42;14.05;;;2.80;;
44774;SDS011;31340;51.402;0.016;2023-08-20T01:12:28;10.63;;;2.00;;
44774;SDS011;31340;51.402;0.016;2023-08-20T01:14:56;12.98;;;2.88;;
44774;SDS011;31340;51.402;0.016;2023-08-20T01:17:24;14.05;;;3.63;;
44774;SDS011;31340;51.402;0.016;2023-08-20T01:19:52;13.60;;;2.38;;
44774;SDS011;31340;51.402;0.016;2023-08-20T01:22:43;15.60;;;2.83;;
44774;SDS011;31340;51.402;0.016;2023-08-20T01:28:26;14.68;;;2.65;;
44774;SDS011;31340;51.402;0.016;2023-08-20T01:30:56;12.82;;;2.30;;
44774;SDS011;31340;51.402;0.016;2023-08-20T01:33:26;12.40;;;3.03;;
44774;SDS011;31340;51.402;0.016;2023-08-20T01:35:54;12.25;;;2.78;;
44774;SDS011;31340;51.402;0.016;2023-08-20T01:38:22;9.80;;;2.72;;
44774;SDS011;31340;51.402;0.016;2023-08-20T01:40:49;10.45;;;2.05;;
44774;SDS011;31340;51.402;0.016;2023-08-20T01:43:17;9.70;;;2.22;;
44774;SDS011;31340;51.402;0.016;2023-08-20T01:45:45;9.40;;;2.33;;
44774;SDS011;31340;51.402;0.016;2023-08-20T01:48:15;20.45;;;3.25;;
44774;SDS011;31340;51.402;0.016;2023-08-20T01:50:43;12.43;;;3.08;;
44774;SDS011;31340;51.402;0.016;2023-08-20T01:53:12;15.07;;;3.50;;
44774;SDS011;31340;51.402;0.016;2023-08-20T01:55:42;25.13;;;4.00;;
44774;SDS011;31340;51.402;0.016;2023-08-20T01:58:09;14.57;;;3.47;;
44774;SDS011;31340;51.402;0.016;2023-08-20T02:00:38;16.38;;;3.60;;
44774;SDS011;31340;51.402;0.016;2023-08-20T02:03:06;21.73;;;5.07;;
44774;SDS011;31340;51.402;0.016;2023-08-20T02:05:34;19.33;;;5.68;;
44774;SDS011;31340;51.402;0.016;2023-08-20T02:08:04;27.65;;;6.50;;
44774;SDS011;31340;51.402;0.016;2023-08-20T02:10:32;16.58;;;5.13;;
44774;SDS011;31340;51.402;0.016;2023-08-20T02:13:00;22.60;;;6.85;;
44774;SDS011;31340;51.402;0.016;2023-08-20T02:15:27;23.65;;;6.60;;
44774;SDS011;31340;51.402;0.016;2023-08-20T02:17:56;25.73;;;7.05;;
44774;SDS011;31340;51.402;0.016;2023-08-20T02:20:23;24.77;;;7.93;;
44774;SDS011;31340;51.402;0.016;2023-08-20T02:22:51;23.30;;;7.18;;
44774;SDS011;31340;51.402;0.016;2023-08-20T02:25:19;24.02;;;8.75;;
44774;SDS011;31340;51.402;0.016;2023-08-20T02:27:46;23.35;;;7.53;;
44774;SDS011;31340;51.402;0.016;2023-08-20T02:30:14;27.45;;;8.70;;
44774;SDS011;31340;51.402;0.016;2023-08-20T02:32:42;27.50;;;8.70;;
44774;SDS011;31340;51.402;0.016;2023-08-20T02:35:10;24.42;;;9.05;;
44774;SDS011;31340;51.402;0.016;2023-08-20T02:37:39;23.50;;;8.73;;
44774;SDS011;31340;51.402;0.016;2023-08-20T02:40:11;25.25;;;8.32;;
44774;SDS011;31340;51.402;0.016;2023-08-20T02:42:40;25.65;;;8.55;;
44774;SDS011;31340;51.402;0.016;2023-08-20T02:45:08;24.00;;;8.65;;
44774;SDS011;31340;51.402;0.016;2023-08-20T02:47:36;20.45;;;8.18;;
44774;SDS011;31340;51.402;0.016;2023-08-20T02:50:04;21.48;;;7.88;;
44774;SDS011;31340;51.402;0.016;2023-08-20T02:52:32;25.42;;;7.50;;
44774;SDS011;31340;51.402;0.016;2023-08-20T02:54:59;21.02;;;7.40;;
44774;SDS011;31340;51.402;0.016;2023-08-20T02:57:27;23.23;;;7.55;;
44774;SDS011;31340;51.402;0.016;2023-08-20T02:59:55;21.10;;;7.05;;
44774;SDS011;31340;51.402;0.016;2023-08-20T03:02:22;20.23;;;7.30;;
44774;SDS011;31340;51.402;0.016;2023-08-20T03:04:50;30.23;;;6.90;;
44774;SDS011;31340;51.402;0.016;2023-08-20T03:07:18;21.67;;;7.35;;
44774;SDS011;31340;51.402;0.016;2023-08-20T03:09:45;23.73;;;7.38;;
44774;SDS011;31340;51.402;0.016;2023-08-20T03:12:13;21.30;;;5.75;;
44774;SDS011;31340;51.402;0.016;2023-08-20T03:14:40;23.77;;;6.88;;
44774;SDS011;31340;51.402;0.016;2023-08-20T03:17:08;17.80;;;6.63;;
44774;SDS011;31340;51.402;0.016;2023-08-20T03:19:35;24.30;;;7.13;;
44774;SDS011;31340;51.402;0.016;2023-08-20T03:22:03;19.58;;;5.95;;
44774;SDS011;31340;51.402;0.016;2023-08-20T03:24:31;22.65;;;5.95;;
44774;SDS011;31340;51.402;0.016;2023-08-20T03:26:58;20.05;;;7.03;;
44774;SDS011;31340;51.402;0.016;2023-08-20T03:29:26;18.27;;;6.25;;
44774;SDS011;31340;51.402;0.016;2023-08-20T03:31:54;19.25;;;6.38;;
44774;SDS011;31340;51.402;0.016;2023-08-20T03:34:22;15.52;;;6.20;;
44774;SDS011;31340;51.402;0.016;2023-08-20T03:36:49;21.15;;;6.97;;
44774;SDS011;31340;51.402;0.016;2023-08-20T03:39:17;23.52;;;6.70;;
44774;SDS011;31340;51.402;0.016;2023-08-20T03:41:45;23.70;;;6.57;;
44774;SDS011;31340;51.402;0.016;2023-08-20T03:44:14;19.77;;;6.20;;
44774;SDS011;31340;51.402;0.016;2023-08-20T03:46:43;16.15;;;5.72;;
44774;SDS011;31340;51.402;0.016;2023-08-20T03:49:12;19.88;;;6.38;;
44774;SDS011;31340;51.402;0.016;2023-08-20T03:51:39;15.63;;;5.78;;
44774;SDS011;31340;51.402;0.016;2023-08-20T03:54:08;14.35;;;5.22;;
44774;SDS011;31340;51.402;0.016;2023-08-20T03:56:36;20.05;;;5.60;;
44774;SDS011;31340;51.402;0.016;2023-08-20T03:59:03;28.35;;;6.97;;
44774;SDS011;31340;51.402;0.016;2023-08-20T04:01:31;23.02;;;7.30;;
44774;SDS011;31340;51.402;0.016;2023-08-20T04:03:59;20.83;;;5.63;;
44774;SDS011;31340;51.402;0.016;2023-08-20T04:06:27;20.95;;;5.85;;
44774;SDS011;31340;51.402;0.016;2023-08-20T04:08:55;21.38;;;6.70;;
44774;SDS011;31340;51.402;0.016;2023-08-20T04:11:22;22.55;;;6.22;;
44774;SDS011;31340;51.402;0.016;2023-08-20T04:13:50;29.88;;;8.57;;
44774;SDS011;31340;51.402;0.016;2023-08-20T04:16:18;21.33;;;7.68;;
44774;SDS011;31340;51.402;0.016;2023-08-20T04:18:45;24.48;;;7.20;;
44774;SDS011;31340;51.402;0.016;2023-08-20T04:21:13;25.00;;;7.05;;
44774;SDS011;31340;51.402;0.016;2023-08-20T04:23:41;21.98;;;6.93;;
44774;SDS011;31340;51.402;0.016;2023-08-20T04:26:09;20.35;;;7.93;;
44774;SDS011;31340;51.402;0.016;2023-08-20T04:28:36;26.65;;;9.68;;
44774;SDS011;31340;51.402;0.016;2023-08-20T04:31:04;24.77;;;8.82;;
44774;SDS011;31340;51.402;0.016;2023-08-20T04:33:46;20.45;;;8.18;;
44774;SDS011;31340;51.402;0.016;2023-08-20T04:36:18;15.80;;;7.75;;
44774;SDS011;31340;51.402;0.016;2023-08-20T04:38:46;20.10;;;8.75;;
44774;SDS011;31340;51.402;0.016;2023-08-20T04:41:13;20.90;;;9.07;;
44774;SDS011;31340;51.402;0.016;2023-08-20T04:43:41;19.08;;;9.15;;
44774;SDS011;31340;51.402;0.016;2023-08-20T04:46:09;17.15;;;8.40;;
44774;SDS011;31340;51.402;0.016;2023-08-20T04:48:36;22.48;;;9.73;;
44774;SDS011;31340;51.402;0.016;2023-08-20T04:51:04;26.65;;;10.98;;
44774;SDS011;31340;51.402;0.016;2023-08-20T04:53:32;23.45;;;10.70;;
44774;SDS011;31340;51.402;0.016;2023-08-20T04:56:00;25.60;;;10.57;;
44774;SDS011;31340;51.402;0.016;2023-08-20T04:58:28;22.65;;;10.43;;
44774;SDS011;31340;51.402;0.016;2023-08-20T05:00:57;25.05;;;10.80;;
44774;SDS011;31340;51.402;0.016;2023-08-20T05:03:25;20.88;;;9.30;;
44774;SDS011;31340;51.402;0.016;2023-08-20T05:05:53;23.58;;;9.70;;
44774;SDS011;31340;51.402;0.016;2023-08-20T05:08:21;27.95;;;10.15;;
44774;SDS011;31340;51.402;0.016;2023-08-20T05:10:49;26.23;;;9.38;;
44774;SDS011;31340;51.402;0.016;2023-08-20T05:13:18;24.63;;;9.18;;
44774;SDS011;31340;51.402;0.016;2023-08-20T05:15:49;22.45;;;8.50;;
44774;SDS011;31340;51.402;0.016;2023-08-20T05:18:16;21.63;;;9.75;;
44774;SDS011;31340;51.402;0.016;2023-08-20T05:20:44;27.13;;;8.30;;
44774;SDS011;31340;51.402;0.016;2023-08-20T05:23:11;30.33;;;8.23;;
44774;SDS011;31340;51.402;0.016;2023-08-20T05:25:41;35.20;;;9.15;;
44774;SDS011;31340;51.402;0.016;2023-08-20T05:28:08;21.17;;;7.80;;
44774;SDS011;31340;51.402;0.016;2023-08-20T05:30:36;22.15;;;6.90;;
44774;SDS011;31340;51.402;0.016;2023-08-20T05:33:04;20.73;;;6.90;;
44774;SDS011;31340;51.402;0.016;2023-08-20T05:35:35;25.98;;;7.70;;
44774;SDS011;31340;51.402;0.016;2023-08-20T05:38:03;21.95;;;6.78;;
44774;SDS011;31340;51.402;0.016;2023-08-20T05:40:31;17.20;;;5.90;;
44774;SDS011;31340;51.402;0.016;2023-08-20T05:42:59;23.73;;;6.47;;
44774;SDS011;31340;51.402;0.016;2023-08-20T05:45:27;22.02;;;5.72;;
44774;SDS011;31340;51.402;0.016;2023-08-20T05:47:55;29.38;;;6.82;;
44774;SDS011;31340;51.402;0.016;2023-08-20T05:50:23;26.52;;;6.00;;
44774;SDS011;31340;51.402;0.016;2023-08-20T05:52:51;21.75;;;6.57;;
44774;SDS011;31340;51.402;0.016;2023-08-20T05:55:20;21.98;;;5.38;;
44774;SDS011;31340;51.402;0.016;2023-08-20T05:57:49;20.65;;;4.80;;
44774;SDS011;31340;51.402;0.016;2023-08-20T06:00:17;24.08;;;5.57;;
44774;SDS011;31340;51.402;0.016;2023-08-20T06:02:47;21.80;;;5.30;;
44774;SDS011;31340;51.402;0.016;2023-08-20T06:05:16;19.52;;;4.97;;
44774;SDS011;31340;51.402;0.016;2023-08-20T06:07:43;26.45;;;4.45;;
44774;SDS011;31340;51.402;0.016;2023-08-20T06:10:11;20.52;;;4.45;;
44774;SDS011;31340;51.402;0.016;2023-08-20T06:12:38;18.80;;;4.47;;
44774;SDS011;31340;51.402;0.016;2023-08-20T06:15:07;23.33;;;4.93;;
44774;SDS011;31340;51.402;0.016;2023-08-20T06:17:35;17.00;;;4.70;;
44774;SDS011;31340;51.402;0.016;2023-08-20T06:20:04;22.48;;;4.00;;
44774;SDS011;31340;51.402;0.016;2023-08-20T06:22:35;25.00;;;5.82;;
44774;SDS011;31340;51.402;0.016;2023-08-20T06:25:03;18.38;;;4.53;;
44774;SDS011;31340;51.402;0.016;2023-08-20T06:27:31;20.50;;;5.28;;
44774;SDS011;31340;51.402;0.016;2023-08-20T06:30:01;18.27;;;4.43;;
44774;SDS011;31340;51.402;0.016;2023-08-20T06:32:29;21.52;;;4.03;;
44774;SDS011;31340;51.402;0.016;2023-08-20T06:34:57;21.35;;;4.07;;
44774;SDS011;31340;51.402;0.016;2023-08-20T06:37:24;19.65;;;4.20;;
44774;SDS011;31340;51.402;0.016;2023-08-20T06:39:52;17.55;;;4.22;;
44774;SDS011;31340;51.402;0.016;2023-08-20T06:42:20;19.88;;;5.25;;
44774;SDS011;31340;51.402;0.016;2023-08-20T06:44:47;19.90;;;4.90;;
44774;SDS011;31340;51.402;0.016;2023-08-20T06:47:15;16.20;;;4.32;;
44774;SDS011;31340;51.402;0.016;2023-08-20T06:49:42;24.33;;;5.30;;
44774;SDS011;31340;51.402;0.016;2023-08-20T06:52:10;18.55;;;5.47;;
44774;SDS011;31340;51.402;0.016;2023-08-20T06:54:37;12.50;;;4.90;;
44774;SDS011;31340;51.402;0.016;2023-08-20T06:57:05;19.42;;;4.40;;
44774;SDS011;31340;51.402;0.016;2023-08-20T06:59:32;14.43;;;4.30;;
44774;SDS011;31340;51.402;0.016;2023-08-20T07:02:00;16.45;;;4.22;;
44774;SDS011;31340;51.402;0.016;2023-08-20T07:04:28;22.05;;;4.85;;
44774;SDS011;31340;51.402;0.016;2023-08-20T07:06:55;11.75;;;4.13;;
44774;SDS011;31340;51.402;0.016;2023-08-20T07:09:23;15.65;;;4.10;;
44774;SDS011;31340;51.402;0.016;2023-08-20T07:11:51;15.15;;;3.83;;
44774;SDS011;31340;51.402;0.016;2023-08-20T07:14:18;15.35;;;4.68;;
44774;SDS011;31340;51.402;0.016;2023-08-20T07:16:46;11.60;;;3.55;;
44774;SDS011;31340;51.402;0.016;2023-08-20T07:19:13;14.93;;;3.65;;
44774;SDS011;31340;51.402;0.016;2023-08-20T07:21:41;11.43;;;3.15;;
44774;SDS011;31340;51.402;0.016;2023-08-20T07:24:08;15.50;;;3.08;;
44774;SDS011;31340;51.402;0.016;2023-08-20T07:26:36;16.30;;;3.15;;
44774;SDS011;31340;51.402;0.016;2023-08-20T07:29:03;12.13;;;2.60;;
44774;SDS011;31340;51.402;0.016;2023-08-20T07:31:32;13.57;;;3.40;;
44774;SDS011;31340;51.402;0.016;2023-08-20T07:34:01;14.50;;;3.50;;
44774;SDS011;31340;51.402;0.016;2023-08-20T07:36:32;11.55;;;2.47;;
44774;SDS011;31340;51.402;0.016;2023-08-20T07:39:00;9.18;;;2.33;;
44774;SDS011;31340;51.402;0.016;2023-08-20T07:41:29;15.00;;;2.53;;
44774;SDS011;31340;51.402;0.016;2023-08-20T07:43:57;10.77;;;2.63;;
44774;SDS011;31340;51.402;0.016;2023-08-20T07:46:24;11.98;;;3.22;;
44774;SDS011;31340;51.402;0.016;2023-08-20T07:48:52;11.93;;;2.95;;
44774;SDS011;31340;51.402;0.016;2023-08-20T07:51:20;14.63;;;2.80;;
44774;SDS011;31340;51.402;0.016;2023-08-20T07:53:47;13.80;;;2.80;;
44774;SDS011;31340;51.402;0.016;2023-08-20T07:56:15;14.45;;;3.17;;
44774;SDS011;31340;51.402;0.016;2023-08-20T07:58:42;12.50;;;2.70;;
44774;SDS011;31340;51.402;0.016;2023-08-20T08:01:10;19.00;;;3.50;;
44774;SDS011;31340;51.402;0.016;2023-08-20T08:03:40;14.30;;;2.50;;
44774;SDS011;31340;51.402;0.016;2023-08-20T08:06:09;18.52;;;2.92;;
44774;SDS011;31340;51.402;0.016;2023-08-20T08:08:37;11.70;;;2.55;;
44774;SDS011;31340;51.402;0.016;2023-08-20T08:11:08;14.30;;;2.75;;
44774;SDS011;31340;51.402;0.016;2023-08-20T08:13:36;13.52;;;2.67;;
44774;SDS011;31340;51.402;0.016;2023-08-20T08:16:03;8.55;;;2.45;;
44774;SDS011;31340;51.402;0.016;2023-08-20T08:18:32;15.02;;;2.50;;
44774;SDS011;31340;51.402;0.016;2023-08-20T08:21:00;10.48;;;2.55;;
44774;SDS011;31340;51.402;0.016;2023-08-20T08:23:27;10.13;;;2.83;;
44774;SDS011;31340;51.402;0.016;2023-08-20T08:25:55;14.60;;;3.15;;
44774;SDS011;31340;51.402;0.016;2023-08-20T08:28:22;12.38;;;2.97;;
44774;SDS011;31340;51.402;0.016;2023-08-20T08:30:50;12.70;;;2.65;;
44774;SDS011;31340;51.402;0.016;2023-08-20T08:33:18;13.65;;;2.45;;
44774;SDS011;31340;51.402;0.016;2023-08-20T08:35:45;12.65;;;2.63;;
44774;SDS011;31340;51.402;0.016;2023-08-20T08:38:13;13.35;;;3.30;;
44774;SDS011;31340;51.402;0.016;2023-08-20T08:40:40;12.10;;;2.90;;
44774;SDS011;31340;51.402;0.016;2023-08-20T08:43:09;11.50;;;2.83;;
44774;SDS011;31340;51.402;0.016;2023-08-20T08:45:46;19.58;;;3.00;;
44774;SDS011;31340;51.402;0.016;2023-08-20T08:48:15;9.43;;;2.22;;
44774;SDS011;31340;51.402;0.016;2023-08-20T08:50:44;18.17;;;2.83;;
44774;SDS011;31340;51.402;0.016;2023-08-20T08:53:13;7.68;;;1.90;;
44774;SDS011;31340;51.402;0.016;2023-08-20T08:55:41;15.52;;;2.55;;
44774;SDS011;31340;51.402;0.016;2023-08-20T08:58:10;10.38;;;2.60;;
44774;SDS011;31340;51.402;0.016;2023-08-20T09:00:37;11.80;;;2.55;;
44774;SDS011;31340;51.402;0.016;2023-08-20T09:03:05;12.98;;;2.30;;
44774;SDS011;31340;51.402;0.016;2023-08-20T09:05:32;14.00;;;3.13;;
44774;SDS011;31340;51.402;0.016;2023-08-20T09:08:01;13.38;;;2.83;;
44774;SDS011;31340;51.402;0.016;2023-08-20T09:10:28;9.20;;;2.72;;
44774;SDS011;31340;51.402;0.016;2023-08-20T09:12:56;9.70;;;2.55;;
44774;SDS011;31340;51.402;0.016;2023-08-20T09:15:31;10.77;;;3.25;;
44774;SDS011;31340;51.402;0.016;2023-08-20T09:18:01;11.50;;;2.22;;
44774;SDS011;31340;51.402;0.016;2023-08-20T09:20:33;9.68;;;2.50;;
44774;SDS011;31340;51.402;0.016;2023-08-20T09:23:02;9.80;;;2.30;;
44774;SDS011;31340;51.402;0.016;2023-08-20T09:25:30;9.10;;;2.03;;
44774;SDS011;31340;51.402;0.016;2023-08-20T09:28:02;7.68;;;1.98;;
44774;SDS011;31340;51.402;0.016;2023-08-20T09:30:30;7.30;;;1.88;;
44774;SDS011;31340;51.402;0.016;2023-08-20T09:33:03;11.48;;;2.30;;
44774;SDS011;31340;51.402;0.016;2023-08-20T09:35:31;10.20;;;2.25;;
44774;SDS011;31340;51.402;0.016;2023-08-20T09:37:59;11.27;;;2.55;;
44774;SDS011;31340;51.402;0.016;2023-08-20T09:40:27;12.93;;;2.40;;
44774;SDS011;31340;51.402;0.016;2023-08-20T09:42:55;12.88;;;2.58;;
44774;SDS011;31340;51.402;0.016;2023-08-20T09:45:24;7.00;;;2.25;;
44774;SDS011;31340;51.402;0.016;2023-08-20T09:50:23;12.10;;;2.25;;
44774;SDS011;31340;51.402;0.016;2023-08-20T09:52:57;12.38;;;2.30;;
44774;SDS011;31340;51.402;0.016;2023-08-20T09:55:38;9.45;;;2.72;;
44774;SDS011;31340;51.402;0.016;2023-08-20T09:58:08;8.40;;;2.38;;
44774;SDS011;31340;51.402;0.016;2023-08-20T10:00:37;13.88;;;2.50;;
44774;SDS011;31340;51.402;0.016;2023-08-20T10:03:05;10.73;;;2.35;;
44774;SDS011;31340;51.402;0.016;2023-08-20T10:05:33;12.48;;;2.58;;
44774;SDS011;31340;51.402;0.016;2023-08-20T10:08:01;11.15;;;2.10;;
44774;SDS011;31340;51.402;0.016;2023-08-20T10:10:29;7.47;;;1.90;;
44774;SDS011;31340;51.402;0.016;2023-08-20T10:12:57;12.60;;;1.90;;
44774;SDS011;31340;51.402;0.016;2023-08-20T10:15:25;8.80;;;2.30;;
44774;SDS011;31340;51.402;0.016;2023-08-20T10:17:55;6.33;;;1.60;;
44774;SDS011;31340;51.402;0.016;2023-08-20T10:20:25;7.20;;;2.05;;
44774;SDS011;31340;51.402;0.016;2023-08-20T10:23:00;9.82;;;2.30;;
44774;SDS011;31340;51.402;0.016;2023-08-20T10:25:29;11.20;;;2.13;;
44774;SDS011;31340;51.402;0.016;2023-08-20T10:28:13;10.15;;;1.90;;
44774;SDS011;31340;51.402;0.016;2023-08-20T10:31:04;6.63;;;1.92;;
44774;SDS011;31340;51.402;0.016;2023-08-20T10:33:35;11.32;;;2.33;;
44774;SDS011;31340;51.402;0.016;2023-08-20T10:36:17;12.57;;;2.30;;
44774;SDS011;31340;51.402;0.016;2023-08-20T10:38:49;8.70;;;2.15;;
44774;SDS011;31340;51.402;0.016;2023-08-20T10:41:17;10.32;;;2.00;;
44774;SDS011;31340;51.402;0.016;2023-08-20T10:43:52;9.45;;;2.25;;
44774;SDS011;31340;51.402;0.016;2023-08-20T10:48:49;6.28;;;1.88;;
44774;SDS011;31340;51.402;0.016;2023-08-20T10:51:25;9.85;;;2.35;;
44774;SDS011;31340;51.402;0.016;2023-08-20T11:01:50;6.93;;;2.00;;
44774;SDS011;31340;51.402;0.016;2023-08-20T11:04:20;8.38;;;1.98;;
44774;SDS011;31340;51.402;0.016;2023-08-20T11:06:57;5.90;;;1.55;;
44774;SDS011;31340;51.402;0.016;2023-08-20T11:09:26;7.13;;;1.90;;
44774;SDS011;31340;51.402;0.016;2023-08-20T11:11:55;8.13;;;1.73;;
44774;SDS011;31340;51.402;0.016;2023-08-20T11:14:23;5.82;;;1.23;;
44774;SDS011;31340;51.402;0.016;2023-08-20T11:16:51;5.10;;;1.45;;
44774;SDS011;31340;51.402;0.016;2023-08-20T11:19:22;7.60;;;1.60;;
44774;SDS011;31340;51.402;0.016;2023-08-20T11:21:50;9.50;;;1.95;;
44774;SDS011;31340;51.402;0.016;2023-08-20T11:24:19;9.98;;;1.80;;
44774;SDS011;31340;51.402;0.016;2023-08-20T11:26:48;6.53;;;1.48;;
44774;SDS011;31340;51.402;0.016;2023-08-20T11:29:16;7.57;;;1.60;;
44774;SDS011;31340;51.402;0.016;2023-08-20T11:31:50;7.93;;;2.17;;
44774;SDS011;31340;51.402;0.016;2023-08-20T11:34:18;3.55;;;1.40;;
44774;SDS011;31340;51.402;0.016;2023-08-20T11:36:46;7.72;;;1.70;;
44774;SDS011;31340;51.402;0.016;2023-08-20T11:39:15;6.45;;;2.00;;
44774;SDS011;31340;51.402;0.016;2023-08-20T11:41:43;6.32;;;1.70;;
44774;SDS011;31340;51.402;0.016;2023-08-20T11:44:18;7.40;;;1.60;;
44774;SDS011;31340;51.402;0.016;2023-08-20T11:46:48;5.57;;;1.48;;
44774;SDS011;31340;51.402;0.016;2023-08-20T11:49:16;8.73;;;2.20;;
44774;SDS011;31340;51.402;0.016;2023-08-20T11:51:46;9.68;;;2.15;;
44774;SDS011;31340;51.402;0.016;2023-08-20T11:54:15;4.25;;;1.30;;
44774;SDS011;31340;51.402;0.016;2023-08-20T11:56:47;4.22;;;1.38;;
44774;SDS011;31340;51.402;0.016;2023-08-20T11:59:19;8.35;;;1.58;;
44774;SDS011;31340;51.402;0.016;2023-08-20T12:01:51;5.68;;;1.52;;
44774;SDS011;31340;51.402;0.016;2023-08-20T12:04:19;7.05;;;1.58;;
44774;SDS011;31340;51.402;0.016;2023-08-20T12:09:41;4.68;;;1.33;;
44774;SDS011;31340;51.402;0.016;2023-08-20T12:12:09;7.72;;;1.50;;
44774;SDS011;31340;51.402;0.016;2023-08-20T12:14:37;6.18;;;1.55;;
44774;SDS011;31340;51.402;0.016;2023-08-20T12:17:06;4.85;;;1.30;;
44774;SDS011;31340;51.402;0.016;2023-08-20T12:19:35;5.03;;;1.60;;
44774;SDS011;31340;51.402;0.016;2023-08-20T12:22:02;6.28;;;1.42;;
44774;SDS011;31340;51.402;0.016;2023-08-20T12:24:30;6.00;;;1.60;;
44774;SDS011;31340;51.402;0.016;2023-08-20T12:26:58;3.45;;;1.67;;
44774;SDS011;31340;51.402;0.016;2023-08-20T12:29:25;4.07;;;1.20;;
44774;SDS011;31340;51.402;0.016;2023-08-20T12:31:53;6.18;;;1.63;;
44774;SDS011;31340;51.402;0.016;2023-08-20T12:34:21;4.78;;;1.33;;
44774;SDS011;31340;51.402;0.016;2023-08-20T12:36:49;5.88;;;1.95;;
44774;SDS011;31340;51.402;0.016;2023-08-20T12:39:17;5.25;;;1.50;;
44774;SDS011;31340;51.402;0.016;2023-08-20T12:41:45;4.57;;;1.40;;
44774;SDS011;31340;51.402;0.016;2023-08-20T12:44:13;2.45;;;1.05;;
44774;SDS011;31340;51.402;0.016;2023-08-20T12:46:41;5.90;;;1.63;;
44774;SDS011;31340;51.402;0.016;2023-08-20T12:49:09;6.45;;;1.77;;
44774;SDS011;31340;51.402;0.016;2023-08-20T12:51:36;2.75;;;1.30;;
44774;SDS011;31340;51.402;0.016;2023-08-20T12:54:04;5.18;;;1.45;;
44774;SDS011;31340;51.402;0.016;2023-08-20T12:56:31;8.80;;;1.50;;
44774;SDS011;31340;51.402;0.016;2023-08-20T12:58:59;7.00;;;1.65;;
44774;SDS011;31340;51.402;0.016;2023-08-20T13:01:26;5.88;;;1.40;;
44774;SDS011;31340;51.402;0.016;2023-08-20T13:03:54;3.90;;;1.38;;
44774;SDS011;31340;51.402;0.016;2023-08-20T13:06:22;6.45;;;1.35;;
44774;SDS011;31340;51.402;0.016;2023-08-20T13:08:50;4.50;;;1.30;;
44774;SDS011;31340;51.402;0.016;2023-08-20T13:11:18;5.22;;;1.65;;
44774;SDS011;31340;51.402;0.016;2023-08-20T13:13:48;4.50;;;1.88;;
44774;SDS011;31340;51.402;0.016;2023-08-20T13:16:18;6.03;;;1.73;;
44774;SDS011;31340;51.402;0.016;2023-08-20T13:18:46;5.55;;;1.80;;
44774;SDS011;31340;51.402;0.016;2023-08-20T13:21:14;6.65;;;1.40;;
44774;SDS011;31340;51.402;0.016;2023-08-20T13:23:42;4.63;;;1.40;;
44774;SDS011;31340;51.402;0.016;2023-08-20T13:28:39;3.53;;;1.40;;
44774;SDS011;31340;51.402;0.016;2023-08-20T13:31:18;6.45;;;1.60;;
44774;SDS011;31340;51.402;0.016;2023-08-20T13:33:46;5.43;;;1.70;;
44774;SDS011;31340;51.402;0.016;2023-08-20T13:36:14;5.75;;;1.63;;
44774;SDS011;31340;51.402;0.016;2023-08-20T13:38:42;7.75;;;1.40;;
44774;SDS011;31340;51.402;0.016;2023-08-20T13:41:12;3.80;;;1.00;;
44774;SDS011;31340;51.402;0.016;2023-08-20T13:43:39;5.28;;;1.40;;
44774;SDS011;31340;51.402;0.016;2023-08-20T13:46:07;3.80;;;1.35;;
44774;SDS011;31340;51.402;0.016;2023-08-20T13:48:34;5.63;;;1.63;;
44774;SDS011;31340;51.402;0.016;2023-08-20T13:51:02;7.43;;;1.88;;
44774;SDS011;31340;51.402;0.016;2023-08-20T13:53:30;7.13;;;1.63;;
44774;SDS011;31340;51.402;0.016;2023-08-20T13:55:57;5.85;;;1.77;;
44774;SDS011;31340;51.402;0.016;2023-08-20T13:58:25;8.30;;;1.50;;
44774;SDS011;31340;51.402;0.016;2023-08-20T14:00:52;5.32;;;1.30;;
44774;SDS011;31340;51.402;0.016;2023-08-20T14:03:20;4.05;;;1.30;;
44774;SDS011;31340;51.402;0.016;2023-08-20T14:05:48;7.15;;;1.52;;
44774;SDS011;31340;51.402;0.016;2023-08-20T14:08:16;4.60;;;1.58;;
44774;SDS011;31340;51.402;0.016;2023-08-20T14:10:44;4.57;;;1.35;;
44774;SDS011;31340;51.402;0.016;2023-08-20T14:13:11;8.70;;;1.88;;
44774;SDS011;31340;51.402;0.016;2023-08-20T14:15:39;5.35;;;1.55;;
44774;SDS011;31340;51.402;0.016;2023-08-20T14:18:07;5.40;;;1.80;;
44774;SDS011;31340;51.402;0.016;2023-08-20T14:20:36;4.47;;;1.67;;
44774;SDS011;31340;51.402;0.016;2023-08-20T14:23:04;5.70;;;1.45;;
44774;SDS011;31340;51.402;0.016;2023-08-20T14:25:31;4.93;;;1.83;;
44774;SDS011;31340;51.402;0.016;2023-08-20T14:27:59;4.93;;;1.50;;
44774;SDS011;31340;51.402;0.016;2023-08-20T14:30:27;4.40;;;1.30;;
44774;SDS011;31340;51.402;0.016;2023-08-20T14:32:54;4.25;;;1.83;;
44774;SDS011;31340;51.402;0.016;2023-08-20T14:35:22;7.25;;;2.50;;
44774;SDS011;31340;51.402;0.016;2023-08-20T14:37:51;4.68;;;1.70;;
44774;SDS011;31340;51.402;0.016;2023-08-20T14:40:20;4.93;;;1.80;;
44774;SDS011;31340;51.402;0.016;2023-08-20T14:42:47;9.73;;;2.10;;
44774;SDS011;31340;51.402;0.016;2023-08-20T14:45:15;5.45;;;1.80;;
44774;SDS011;31340;51.402;0.016;2023-08-20T14:47:42;9.02;;;1.77;;
44774;SDS011;31340;51.402;0.016;2023-08-20T14:50:10;7.45;;;1.58;;
44774;SDS011;31340;51.402;0.016;2023-08-20T14:52:37;7.00;;;2.05;;
44774;SDS011;31340;51.402;0.016;2023-08-20T14:55:06;5.57;;;1.65;;
44774;SDS011;31340;51.402;0.016;2023-08-20T14:57:35;8.23;;;1.70;;
44774;SDS011;31340;51.402;0.016;2023-08-20T15:00:18;4.97;;;1.42;;
44774;SDS011;31340;51.402;0.016;2023-08-20T15:02:47;6.85;;;1.60;;
44774;SDS011;31340;51.402;0.016;2023-08-20T15:05:14;5.68;;;1.50;;
44774;SDS011;31340;51.402;0.016;2023-08-20T15:07:42;9.00;;;1.63;;
44774;SDS011;31340;51.402;0.016;2023-08-20T15:10:09;11.32;;;1.95;;
44774;SDS011;31340;51.402;0.016;2023-08-20T15:12:37;4.20;;;1.38;;
44774;SDS011;31340;51.402;0.016;2023-08-20T15:15:05;7.93;;;1.60;;